createdAt,value
2023-05-02T00:00:11.525Z,431.00
2023-05-02T00:01:11.609Z,430.00
2023-05-02T00:02:11.662Z,428.00
2023-05-02T00:03:11.689Z,428.00
2023-05-02T00:04:11.859Z,430.00
2023-05-02T00:05:11.597Z,429.00
2023-05-02T00:06:11.708Z,428.00
2023-05-02T00:07:11.693Z,428.00
2023-05-02T00:08:11.736Z,429.00
2023-05-02T00:09:11.754Z,429.00
2023-05-02T00:10:11.812Z,432.00
2023-05-02T00:11:11.862Z,431.00
2023-05-02T00:12:11.896Z,430.00
2023-05-02T00:13:11.937Z,432.00
2023-05-02T00:14:12.039Z,436.00
2023-05-02T00:15:11.981Z,435.00
2023-05-02T00:16:11.930Z,433.00
2023-05-02T00:17:12.086Z,431.00
2023-05-02T00:18:12.098Z,434.00
2023-05-02T00:19:12.494Z,434.00
2023-05-02T00:20:12.664Z,434.00
2023-05-02T00:21:12.020Z,436.00
2023-05-02T00:22:12.037Z,437.00
2023-05-02T00:23:12.065Z,435.00
2023-05-02T00:24:12.089Z,435.00
2023-05-02T00:25:12.097Z,434.00
2023-05-02T00:26:12.078Z,435.00
2023-05-02T00:27:12.150Z,432.00
2023-05-02T00:28:12.144Z,431.00
2023-05-02T00:29:12.157Z,432.00
2023-05-02T00:30:12.432Z,433.00
2023-05-02T00:31:12.177Z,434.00
2023-05-02T00:32:12.175Z,434.00
2023-05-02T00:33:12.266Z,432.00
2023-05-02T00:34:12.279Z,434.00
2023-05-02T00:35:12.379Z,435.00
2023-05-02T00:36:12.425Z,435.00
2023-05-02T00:37:12.498Z,436.00
2023-05-02T00:38:12.540Z,435.00
2023-05-02T00:39:12.625Z,433.00
2023-05-02T00:40:12.671Z,431.00
2023-05-02T00:41:12.699Z,430.00
2023-05-02T00:42:12.681Z,432.00
2023-05-02T00:43:12.677Z,432.00
2023-05-02T00:44:12.705Z,433.00
2023-05-02T00:45:12.707Z,432.00
2023-05-02T00:46:12.755Z,431.00
2023-05-02T00:47:12.785Z,433.00
2023-05-02T00:48:12.835Z,437.00
2023-05-02T00:49:12.804Z,432.00
2023-05-02T00:50:12.731Z,432.00
2023-05-02T00:51:12.701Z,433.00
2023-05-02T00:52:12.759Z,433.00
2023-05-02T00:53:12.755Z,433.00
2023-05-02T00:54:12.835Z,433.00
2023-05-02T00:55:12.868Z,432.00
2023-05-02T00:56:12.889Z,434.00
2023-05-02T00:57:12.934Z,432.00
2023-05-02T00:58:12.997Z,430.00
2023-05-02T00:59:13.075Z,432.00
2023-05-02T01:00:13.111Z,429.00
2023-05-02T01:01:13.160Z,428.00
2023-05-02T01:02:13.298Z,428.00
2023-05-02T01:03:13.317Z,425.00
2023-05-02T01:04:13.413Z,423.00
2023-05-02T01:05:13.290Z,423.00
2023-05-02T01:06:13.351Z,421.00
2023-05-02T01:07:13.355Z,429.00
2023-05-02T01:08:13.385Z,423.00
2023-05-02T01:09:13.392Z,426.00
2023-05-02T01:10:13.395Z,425.00
2023-05-02T01:11:13.364Z,424.00
2023-05-02T01:12:13.435Z,428.00
2023-05-02T01:13:13.384Z,435.00
2023-05-02T01:14:13.449Z,426.00
2023-05-02T01:15:13.414Z,423.00
2023-05-02T01:16:13.520Z,421.00
2023-05-02T01:17:13.504Z,422.00
2023-05-02T01:18:13.607Z,423.00
2023-05-02T01:19:13.468Z,424.00
2023-05-02T01:20:13.508Z,430.00
2023-05-02T01:21:13.495Z,425.00
2023-05-02T01:22:13.512Z,424.00
2023-05-02T01:23:13.587Z,425.00
2023-05-02T01:24:13.628Z,424.00
2023-05-02T01:25:13.685Z,419.00
2023-05-02T01:26:13.688Z,418.00
2023-05-02T01:27:13.733Z,418.00
2023-05-02T01:28:13.767Z,419.00
2023-05-02T01:29:13.935Z,420.00
2023-05-02T01:30:13.857Z,411.00
2023-05-02T01:31:13.940Z,414.00
2023-05-02T01:32:13.864Z,420.00
2023-05-02T01:33:13.905Z,421.00
2023-05-02T01:34:13.938Z,421.00
2023-05-02T01:35:13.844Z,450.00
2023-05-02T01:36:13.865Z,426.00
2023-05-02T01:37:13.921Z,417.00
2023-05-02T01:38:13.922Z,418.00
2023-05-02T01:39:13.861Z,418.00
2023-05-02T01:40:13.890Z,419.00
2023-05-02T01:41:13.961Z,422.00
2023-05-02T01:42:14.003Z,420.00
2023-05-02T01:43:14.037Z,425.00
2023-05-02T01:44:14.098Z,428.00
2023-05-02T01:45:14.101Z,428.00
2023-05-02T01:46:14.331Z,428.00
2023-05-02T01:47:14.328Z,433.00
2023-05-02T01:48:14.313Z,432.00
2023-05-02T01:49:14.378Z,434.00
2023-05-02T01:50:14.442Z,434.00
2023-05-02T01:51:14.474Z,430.00
2023-05-02T01:52:14.832Z,428.00
2023-05-02T01:53:14.546Z,425.00
2023-05-02T01:54:14.627Z,425.00
2023-05-02T01:55:14.600Z,427.00
2023-05-02T01:56:14.692Z,426.00
2023-05-02T01:57:14.997Z,430.00
2023-05-02T01:58:14.700Z,430.00
2023-05-02T01:59:14.747Z,431.00
2023-05-02T02:00:14.798Z,434.00
2023-05-02T02:01:14.908Z,436.00
2023-05-02T02:02:14.964Z,433.00
2023-05-02T02:03:14.914Z,433.00
2023-05-02T02:04:15.058Z,433.00
2023-05-02T02:05:14.973Z,429.00
2023-05-02T02:06:14.995Z,430.00
2023-05-02T02:07:14.992Z,429.00
2023-05-02T02:08:15.062Z,429.00
2023-05-02T02:09:15.101Z,429.00
2023-05-02T02:10:15.134Z,427.00
2023-05-02T02:11:15.126Z,428.00
2023-05-02T02:12:15.177Z,428.00
2023-05-02T02:13:15.231Z,428.00
2023-05-02T02:14:15.304Z,426.00
2023-05-02T02:15:15.240Z,427.00
2023-05-02T02:16:15.287Z,427.00
2023-05-02T02:17:15.313Z,427.00
2023-05-02T02:18:15.405Z,426.00
2023-05-02T02:19:15.416Z,428.00
2023-05-02T02:20:15.398Z,427.00
2023-05-02T02:21:15.392Z,428.00
2023-05-02T02:22:15.408Z,428.00
2023-05-02T02:23:15.711Z,430.00
2023-05-02T02:24:15.459Z,427.00
2023-05-02T02:25:15.513Z,427.00
2023-05-02T02:26:15.478Z,444.00
2023-05-02T02:27:15.496Z,430.00
2023-05-02T02:28:15.545Z,433.00
2023-05-02T02:29:15.607Z,434.00
2023-05-02T02:30:15.608Z,432.00
2023-05-02T02:31:15.683Z,430.00
2023-05-02T02:32:15.767Z,421.00
2023-05-02T02:33:15.787Z,423.00
2023-05-02T02:34:15.844Z,424.00
2023-05-02T02:35:15.921Z,428.00
2023-05-02T02:36:15.961Z,428.00
2023-05-02T02:37:16.014Z,431.00
2023-05-02T02:38:16.036Z,428.00
2023-05-02T02:39:16.070Z,427.00
2023-05-02T02:40:16.123Z,427.00
2023-05-02T02:41:16.150Z,428.00
2023-05-02T02:42:16.219Z,427.00
2023-05-02T02:43:16.158Z,426.00
2023-05-02T02:44:16.159Z,428.00
2023-05-02T02:45:16.169Z,429.00
2023-05-02T02:46:16.200Z,428.00
2023-05-02T02:47:16.483Z,423.00
2023-05-02T02:48:16.293Z,426.00
2023-05-02T02:49:16.226Z,431.00
2023-05-02T02:50:16.217Z,428.00
2023-05-02T02:51:16.256Z,428.00
2023-05-02T02:52:16.223Z,426.00
2023-05-02T02:53:17.253Z,429.00
2023-05-02T02:54:26.411Z,429.00
2023-05-02T02:55:17.273Z,432.00
2023-05-02T02:56:16.249Z,435.00
2023-05-02T02:57:16.252Z,434.00
2023-05-02T02:58:16.269Z,435.00
2023-05-02T02:59:16.318Z,431.00
2023-05-02T03:00:16.241Z,432.00
2023-05-02T03:01:16.247Z,433.00
2023-05-02T03:02:16.236Z,430.00
2023-05-02T03:03:16.257Z,431.00
2023-05-02T03:04:16.219Z,422.00
2023-05-02T03:05:16.256Z,428.00
2023-05-02T03:06:16.222Z,424.00
2023-05-02T03:07:16.222Z,436.00
2023-05-02T03:08:16.173Z,434.00
2023-05-02T03:09:16.176Z,432.00
2023-05-02T03:10:16.180Z,434.00
2023-05-02T03:11:16.147Z,438.00
2023-05-02T03:12:16.166Z,439.00
2023-05-02T03:13:16.205Z,434.00
2023-05-02T03:14:16.155Z,434.00
2023-05-02T03:15:16.179Z,437.00
2023-05-02T03:16:16.141Z,430.00
2023-05-02T03:17:16.211Z,427.00
2023-05-02T03:18:16.228Z,433.00
2023-05-02T03:19:16.218Z,431.00
2023-05-02T03:20:16.245Z,430.00
2023-05-02T03:21:16.348Z,435.00
2023-05-02T03:22:16.375Z,435.00
2023-05-02T03:23:16.515Z,436.00
2023-05-02T03:24:18.907Z,432.00
2023-05-02T03:25:16.528Z,432.00
2023-05-02T03:26:16.452Z,432.00
2023-05-02T03:27:16.460Z,436.00
2023-05-02T03:28:16.479Z,434.00
2023-05-02T03:29:16.529Z,436.00
2023-05-02T03:30:16.464Z,436.00
2023-05-02T03:31:16.511Z,433.00
2023-05-02T03:32:16.453Z,437.00
2023-05-02T03:33:16.634Z,436.00
2023-05-02T03:34:16.438Z,439.00
2023-05-02T03:35:16.504Z,436.00
2023-05-02T03:36:16.415Z,433.00
2023-05-02T03:37:16.446Z,434.00
2023-05-02T03:38:16.405Z,431.00
2023-05-02T03:39:16.452Z,432.00
2023-05-02T03:40:16.389Z,433.00
2023-05-02T03:41:16.358Z,432.00
2023-05-02T03:42:16.383Z,427.00
2023-05-02T03:43:16.341Z,427.00
2023-05-02T03:44:16.378Z,428.00
2023-05-02T03:45:16.356Z,427.00
2023-05-02T03:46:16.334Z,426.00
2023-05-02T03:47:16.364Z,426.00
2023-05-02T03:48:16.338Z,428.00
2023-05-02T03:49:16.379Z,427.00
2023-05-02T03:50:16.357Z,427.00
2023-05-02T03:51:16.295Z,428.00
2023-05-02T03:52:16.329Z,432.00
2023-05-02T03:53:16.304Z,433.00
2023-05-02T03:54:16.424Z,432.00
2023-05-02T03:55:16.429Z,438.00
2023-05-02T03:56:16.272Z,434.00
2023-05-02T03:57:16.290Z,434.00
2023-05-02T03:58:16.240Z,433.00
2023-05-02T03:59:16.293Z,433.00
2023-05-02T04:00:16.267Z,432.00
2023-05-02T04:01:16.282Z,431.00
2023-05-02T04:02:16.309Z,431.00
2023-05-02T04:03:16.314Z,432.00
2023-05-02T04:04:16.351Z,433.00
2023-05-02T04:05:16.330Z,432.00
2023-05-02T04:06:16.414Z,435.00
2023-05-02T04:07:16.426Z,434.00
2023-05-02T04:08:16.477Z,429.00
2023-05-02T04:09:16.553Z,429.00
2023-05-02T04:10:16.577Z,429.00
2023-05-02T04:11:16.704Z,431.00
2023-05-02T04:12:16.670Z,430.00
2023-05-02T04:13:16.746Z,432.00
2023-05-02T04:14:16.762Z,433.00
2023-05-02T04:15:16.887Z,436.00
2023-05-02T04:16:16.901Z,449.00
2023-05-02T04:17:17.078Z,438.00
2023-05-02T04:18:17.014Z,435.00
2023-05-02T04:19:17.045Z,447.00
2023-05-02T04:20:17.072Z,442.00
2023-05-02T04:21:17.119Z,436.00
2023-05-02T04:22:17.153Z,435.00
2023-05-02T04:23:17.207Z,438.00
2023-05-02T04:24:17.288Z,439.00
2023-05-02T04:25:17.244Z,443.00
2023-05-02T04:26:17.336Z,442.00
2023-05-02T04:27:17.322Z,433.00
2023-05-02T04:28:17.349Z,434.00
2023-05-02T04:29:17.387Z,433.00
2023-05-02T04:30:17.414Z,431.00
2023-05-02T04:31:17.504Z,432.00
2023-05-02T04:32:17.521Z,430.00
2023-05-02T04:33:17.584Z,433.00
2023-05-02T04:34:17.591Z,432.00
2023-05-02T04:35:17.724Z,431.00
2023-05-02T04:36:17.729Z,430.00
2023-05-02T04:37:17.747Z,441.00
2023-05-02T04:38:17.849Z,434.00
2023-05-02T04:39:17.848Z,437.00
2023-05-02T04:40:17.860Z,431.00
2023-05-02T04:41:17.923Z,434.00
2023-05-02T04:42:17.960Z,432.00
2023-05-02T04:43:17.992Z,432.00
2023-05-02T04:44:18.018Z,432.00
2023-05-02T04:45:18.000Z,432.00
2023-05-02T04:46:18.082Z,429.00
2023-05-02T04:47:18.073Z,430.00
2023-05-02T04:48:18.081Z,428.00
2023-05-02T04:49:18.218Z,426.00
2023-05-02T04:50:18.247Z,429.00
2023-05-02T04:51:18.205Z,427.00
2023-05-02T04:52:18.311Z,429.00
2023-05-02T04:53:18.364Z,428.00
2023-05-02T04:54:18.525Z,429.00
2023-05-02T04:55:18.472Z,430.00
2023-05-02T04:56:18.524Z,429.00
2023-05-02T04:57:19.024Z,429.00
2023-05-02T04:58:18.601Z,427.00
2023-05-02T04:59:18.655Z,429.00
2023-05-02T05:01:45.816Z,433.00
2023-05-02T05:02:38.133Z,432.00
2023-05-02T05:03:38.289Z,431.00
2023-05-02T05:04:38.108Z,431.00
2023-05-02T05:05:38.145Z,427.00
2023-05-02T05:06:38.260Z,425.00
2023-05-02T05:07:38.050Z,424.00
2023-05-02T05:08:38.065Z,423.00
2023-05-02T05:09:38.075Z,425.00
2023-05-02T05:10:38.048Z,425.00
2023-05-02T05:11:38.033Z,427.00
2023-05-02T05:12:38.031Z,429.00
2023-05-02T05:13:38.014Z,428.00
2023-05-02T05:14:38.081Z,427.00
2023-05-02T05:15:38.049Z,426.00
2023-05-02T05:16:38.078Z,426.00
2023-05-02T05:17:38.043Z,428.00
2023-05-02T05:18:37.979Z,432.00
2023-05-02T05:19:38.087Z,436.00
2023-05-02T05:20:38.058Z,445.00
2023-05-02T05:21:38.180Z,441.00
2023-05-02T05:22:38.165Z,440.00
2023-05-02T05:23:38.661Z,437.00
2023-05-02T05:24:38.310Z,434.00
2023-05-02T05:25:38.364Z,434.00
2023-05-02T05:26:38.378Z,436.00
2023-05-02T05:27:38.446Z,437.00
2023-05-02T05:28:38.481Z,447.00
2023-05-02T05:29:38.583Z,444.00
2023-05-02T05:30:38.619Z,452.00
2023-05-02T05:31:38.706Z,459.00
2023-05-02T05:32:38.729Z,456.00
2023-05-02T05:33:38.815Z,450.00
2023-05-02T05:34:38.864Z,447.00
2023-05-02T05:35:39.555Z,448.00
2023-05-02T05:36:39.407Z,444.00
2023-05-02T05:37:38.991Z,444.00
2023-05-02T05:38:39.114Z,460.00
2023-05-02T05:39:39.357Z,442.00
2023-05-02T05:40:39.110Z,421.00
2023-05-02T05:41:39.189Z,423.00
2023-05-02T05:42:39.288Z,426.00
2023-05-02T05:43:39.264Z,435.00
2023-05-02T05:44:39.367Z,430.00
2023-05-02T05:45:39.335Z,434.00
2023-05-02T05:47:59.131Z,450.00
2023-05-02T05:48:58.995Z,440.00
2023-05-02T05:49:59.097Z,443.00
2023-05-02T05:50:58.929Z,444.00
2023-05-02T05:51:58.941Z,441.00
2023-05-02T05:52:58.937Z,437.00
2023-05-02T05:53:58.963Z,436.00
2023-05-02T05:54:58.863Z,437.00
2023-05-02T05:56:01.520Z,435.00
2023-05-02T05:56:58.889Z,435.00
2023-05-02T05:57:58.889Z,436.00
2023-05-02T05:58:58.935Z,442.00
2023-05-02T05:59:59.086Z,436.00
2023-05-02T06:00:58.901Z,431.00
2023-05-02T06:01:58.813Z,444.00
2023-05-02T06:02:59.057Z,438.00
2023-05-02T06:03:59.622Z,439.00
2023-05-02T06:04:58.941Z,437.00
2023-05-02T06:05:58.947Z,437.00
2023-05-02T06:06:58.875Z,438.00
2023-05-02T06:07:58.855Z,437.00
2023-05-02T06:08:58.841Z,436.00
2023-05-02T06:09:58.985Z,440.00
2023-05-02T06:10:58.782Z,440.00
2023-05-02T06:11:58.868Z,437.00
2023-05-02T06:12:58.835Z,440.00
2023-05-02T06:13:58.769Z,428.00
2023-05-02T06:14:59.092Z,435.00
2023-05-02T06:15:58.823Z,433.00
2023-05-02T06:16:58.907Z,434.00
2023-05-02T06:17:59.782Z,432.00
2023-05-02T06:18:58.778Z,437.00
2023-05-02T06:19:59.209Z,432.00
2023-05-02T06:20:58.729Z,431.00
2023-05-02T06:21:58.732Z,431.00
2023-05-02T06:22:58.824Z,433.00
2023-05-02T06:23:58.739Z,431.00
2023-05-02T06:24:58.764Z,428.00
2023-05-02T06:25:58.757Z,431.00
2023-05-02T06:26:58.777Z,430.00
2023-05-02T06:27:58.670Z,434.00
2023-05-02T06:28:58.679Z,432.00
2023-05-02T06:29:58.977Z,431.00
2023-05-02T06:30:58.693Z,431.00
2023-05-02T06:31:58.916Z,433.00
2023-05-02T06:32:58.703Z,432.00
2023-05-02T06:33:58.670Z,428.00
2023-05-02T06:34:58.714Z,431.00
2023-05-02T06:35:59.969Z,438.00
2023-05-02T06:36:58.669Z,436.00
2023-05-02T06:37:58.708Z,437.00
2023-05-02T06:38:58.631Z,437.00
2023-05-02T06:39:59.173Z,433.00
2023-05-02T06:40:58.601Z,435.00
2023-05-02T06:41:58.656Z,434.00
2023-05-02T06:42:58.681Z,434.00
2023-05-02T06:43:58.563Z,431.00
2023-05-02T06:44:59.088Z,428.00
2023-05-02T06:45:58.843Z,430.00
2023-05-02T06:46:58.605Z,429.00
2023-05-02T06:47:58.667Z,436.00
2023-05-02T06:48:58.599Z,431.00
2023-05-02T06:49:58.997Z,432.00
2023-05-02T06:50:59.543Z,433.00
2023-05-02T06:51:59.494Z,433.00
2023-05-02T06:52:58.532Z,428.00
2023-05-02T06:53:59.566Z,427.00
2023-05-02T06:54:59.221Z,424.00
2023-05-02T06:55:58.576Z,425.00
2023-05-02T06:56:58.522Z,426.00
2023-05-02T06:57:58.504Z,426.00
2023-05-02T06:58:59.093Z,438.00
2023-05-02T06:59:58.766Z,427.00
2023-05-02T07:00:58.566Z,436.00
2023-05-02T07:01:58.467Z,438.00
2023-05-02T07:02:58.535Z,435.00
2023-05-02T07:03:58.565Z,430.00
2023-05-02T07:04:58.603Z,426.00
2023-05-02T07:05:58.745Z,429.00
2023-05-02T07:06:58.624Z,432.00
2023-05-02T07:07:58.742Z,434.00
2023-05-02T07:08:58.728Z,435.00
2023-05-02T07:09:59.234Z,437.00
2023-05-02T07:10:58.841Z,441.00
2023-05-02T07:11:58.847Z,442.00
2023-05-02T07:12:58.869Z,441.00
2023-05-02T07:13:58.913Z,453.00
2023-05-02T07:14:59.179Z,446.00
2023-05-02T07:15:59.113Z,438.00
2023-05-02T07:16:59.277Z,436.00
2023-05-02T07:17:59.260Z,435.00
2023-05-02T07:18:59.213Z,435.00
2023-05-02T07:19:59.613Z,442.00
2023-05-02T07:20:59.218Z,433.00
2023-05-02T07:21:59.261Z,433.00
2023-05-02T07:22:59.354Z,443.00
2023-05-02T07:24:01.100Z,436.00
2023-05-02T07:24:59.514Z,458.00
2023-05-02T07:25:59.261Z,448.00
2023-05-02T07:26:59.312Z,441.00
2023-05-02T07:27:59.377Z,439.00
2023-05-02T07:28:59.486Z,445.00
2023-05-02T07:29:59.864Z,441.00
2023-05-02T07:31:00.151Z,439.00
2023-05-02T07:31:59.920Z,445.00
2023-05-02T07:32:59.654Z,449.00
2023-05-02T07:33:59.623Z,439.00
2023-05-02T07:34:59.752Z,436.00
2023-05-02T07:36:00.059Z,439.00
2023-05-02T07:36:59.809Z,444.00
2023-05-02T07:37:59.880Z,439.00
2023-05-02T07:38:59.851Z,444.00
2023-05-02T07:40:00.261Z,437.00
2023-05-02T07:41:00.105Z,436.00
2023-05-02T07:42:00.155Z,440.00
2023-05-02T07:43:00.007Z,436.00
2023-05-02T07:44:00.027Z,441.00
2023-05-02T07:45:00.181Z,440.00
2023-05-02T07:46:00.213Z,444.00
2023-05-02T07:47:00.127Z,437.00
2023-05-02T07:48:00.317Z,439.00
2023-05-02T07:49:00.267Z,414.00
2023-05-02T07:50:00.734Z,431.00
2023-05-02T07:51:00.527Z,451.00
2023-05-02T07:52:00.255Z,461.00
2023-05-02T07:53:00.281Z,425.00
2023-05-02T07:54:00.370Z,425.00
2023-05-02T07:55:00.376Z,427.00
2023-05-02T07:56:00.388Z,438.00
2023-05-02T07:57:00.404Z,431.00
2023-05-02T07:58:00.549Z,434.00
2023-05-02T07:59:00.438Z,428.00
2023-05-02T08:00:00.944Z,433.00
2023-05-02T08:01:00.545Z,426.00
2023-05-02T08:02:00.550Z,432.00
2023-05-02T08:03:00.647Z,433.00
2023-05-02T08:04:00.806Z,419.00
2023-05-02T08:05:00.683Z,421.00
2023-05-02T08:06:01.136Z,423.00
2023-05-02T08:07:00.701Z,433.00
2023-05-02T08:08:00.780Z,426.00
2023-05-02T08:09:00.803Z,395.00
2023-05-02T08:10:01.219Z,406.00
2023-05-02T08:11:01.624Z,414.00
2023-05-02T08:12:00.896Z,435.00
2023-05-02T08:13:00.951Z,422.00
2023-05-02T08:14:00.938Z,424.00
2023-05-02T08:15:01.190Z,452.00
2023-05-02T08:16:01.611Z,405.00
2023-05-02T08:17:01.042Z,430.00
2023-05-02T08:18:01.219Z,425.00
2023-05-02T08:19:01.265Z,424.00
2023-05-02T08:20:01.426Z,426.00
2023-05-02T08:21:01.632Z,428.00
2023-05-02T08:22:01.167Z,419.00
2023-05-02T08:23:01.211Z,425.00
2023-05-02T08:24:01.239Z,447.00
2023-05-02T08:25:01.220Z,413.00
2023-05-02T08:26:01.239Z,421.00
2023-05-02T08:27:01.244Z,429.00
2023-05-02T08:28:01.245Z,425.00
2023-05-02T08:29:01.263Z,422.00
2023-05-02T08:30:01.618Z,426.00
2023-05-02T08:31:01.307Z,428.00
2023-05-02T08:32:01.625Z,427.00
2023-05-02T08:33:01.494Z,427.00
2023-05-02T08:34:01.462Z,444.00
2023-05-02T08:35:01.524Z,415.00
2023-05-02T08:36:02.131Z,426.00
2023-05-02T08:37:01.613Z,424.00
2023-05-02T08:38:01.619Z,422.00
2023-05-02T08:39:01.618Z,419.00
2023-05-02T08:40:01.993Z,440.00
2023-05-02T08:41:02.758Z,419.00
2023-05-02T08:42:01.732Z,420.00
2023-05-02T08:43:01.736Z,419.00
2023-05-02T08:44:01.881Z,422.00
2023-05-02T08:45:01.879Z,413.00
2023-05-02T08:46:02.055Z,411.00
2023-05-02T08:47:02.278Z,412.00
2023-05-02T08:48:02.039Z,418.00
2023-05-02T08:49:02.095Z,422.00
2023-05-02T08:50:02.588Z,423.00
2023-05-02T08:51:02.539Z,425.00
2023-05-02T08:52:02.140Z,429.00
2023-05-02T08:53:02.230Z,428.00
2023-05-02T08:54:02.182Z,419.00
2023-05-02T08:55:02.705Z,419.00
2023-05-02T08:56:02.550Z,417.00
2023-05-02T08:57:02.262Z,416.00
2023-05-02T08:58:02.374Z,419.00
2023-05-02T08:59:02.358Z,416.00
2023-05-02T09:00:02.983Z,429.00
2023-05-02T09:01:02.377Z,422.00
2023-05-02T09:02:02.637Z,412.00
2023-05-02T09:03:02.546Z,414.00
2023-05-02T09:04:02.708Z,419.00
2023-05-02T09:05:03.043Z,418.00
2023-05-02T09:06:02.601Z,422.00
2023-05-02T09:07:02.739Z,424.00
2023-05-02T09:08:02.688Z,433.00
2023-05-02T09:09:02.646Z,421.00
2023-05-02T09:10:02.790Z,422.00
2023-05-02T09:11:02.816Z,421.00
2023-05-02T09:12:02.760Z,421.00
2023-05-02T09:13:02.689Z,417.00
2023-05-02T09:14:02.785Z,414.00
2023-05-02T09:15:02.801Z,419.00
2023-05-02T09:16:03.182Z,418.00
2023-05-02T09:17:02.859Z,405.00
2023-05-02T09:18:02.846Z,408.00
2023-05-02T09:19:02.842Z,415.00
2023-05-02T09:20:02.941Z,415.00
2023-05-02T09:21:03.113Z,414.00
2023-05-02T09:22:02.846Z,415.00
2023-05-02T09:23:02.954Z,416.00
2023-05-02T09:24:03.968Z,418.00
2023-05-02T09:25:03.058Z,418.00
2023-05-02T09:26:03.592Z,418.00
2023-05-02T09:27:03.395Z,417.00
2023-05-02T09:28:03.180Z,419.00
2023-05-02T09:29:03.264Z,418.00
2023-05-02T09:30:03.311Z,420.00
2023-05-02T09:31:04.068Z,418.00
2023-05-02T09:32:03.577Z,417.00
2023-05-02T09:33:03.475Z,417.00
2023-05-02T09:34:03.474Z,418.00
2023-05-02T09:35:03.537Z,421.00
2023-05-02T09:36:03.641Z,419.00
2023-05-02T09:37:03.674Z,418.00
2023-05-02T09:38:03.805Z,417.00
2023-05-02T09:39:03.724Z,419.00
2023-05-02T09:40:03.787Z,419.00
2023-05-02T09:41:04.096Z,418.00
2023-05-02T09:42:04.079Z,415.00
2023-05-02T09:43:04.093Z,417.00
2023-05-02T09:44:03.951Z,416.00
2023-05-02T09:45:04.046Z,420.00
2023-05-02T09:46:04.196Z,422.00
2023-05-02T09:47:06.182Z,422.00
2023-05-02T09:48:04.212Z,421.00
2023-05-02T09:49:04.141Z,423.00
2023-05-02T09:50:05.092Z,422.00
2023-05-02T09:51:04.551Z,420.00
2023-05-02T09:52:04.273Z,416.00
2023-05-02T09:53:04.268Z,414.00
2023-05-02T09:54:04.309Z,418.00
2023-05-02T09:55:04.344Z,422.00
2023-05-02T09:56:04.612Z,432.00
2023-05-02T09:57:04.404Z,452.00
2023-05-02T09:58:04.532Z,412.00
2023-05-02T09:59:04.524Z,421.00
2023-05-02T10:00:04.609Z,421.00
2023-05-02T10:01:05.592Z,419.00
2023-05-02T10:02:04.691Z,423.00
2023-05-02T10:03:04.803Z,421.00
2023-05-02T10:04:04.772Z,423.00
2023-05-02T10:05:05.002Z,418.00
2023-05-02T10:06:05.142Z,408.00
2023-05-02T10:07:05.012Z,421.00
2023-05-02T10:08:05.121Z,422.00
2023-05-02T10:09:05.116Z,424.00
2023-05-02T10:10:05.208Z,430.00
2023-05-02T10:11:05.218Z,426.00
2023-05-02T10:12:05.321Z,431.00
2023-05-02T10:13:05.334Z,430.00
2023-05-02T10:14:05.946Z,431.00
2023-05-02T10:15:05.443Z,430.00
2023-05-02T10:16:06.278Z,430.00
2023-05-02T10:17:05.475Z,422.00
2023-05-02T10:18:05.623Z,417.00
2023-05-02T10:19:05.721Z,453.00
2023-05-02T10:20:05.779Z,417.00
2023-05-02T10:21:05.808Z,424.00
2023-05-02T10:22:06.543Z,416.00
2023-05-02T10:23:05.921Z,428.00
2023-05-02T10:24:05.922Z,427.00
2023-05-02T10:25:05.952Z,428.00
2023-05-02T10:26:05.930Z,424.00
2023-05-02T10:27:06.187Z,422.00
2023-05-02T10:28:06.048Z,418.00
2023-05-02T10:29:06.002Z,418.00
2023-05-02T10:30:06.176Z,404.00
2023-05-02T10:31:06.208Z,409.00
2023-05-02T10:32:06.802Z,409.00
2023-05-02T10:33:06.209Z,409.00
2023-05-02T10:34:06.205Z,410.00
2023-05-02T10:35:06.214Z,411.00
2023-05-02T10:36:06.623Z,413.00
2023-05-02T10:37:07.037Z,414.00
2023-05-02T10:38:06.424Z,418.00
2023-05-02T10:39:07.148Z,415.00
2023-05-02T10:40:07.063Z,416.00
2023-05-02T10:41:06.489Z,415.00
2023-05-02T10:42:07.163Z,408.00
2023-05-02T10:43:06.663Z,413.00
2023-05-02T10:44:06.618Z,411.00
2023-05-02T10:45:06.694Z,413.00
2023-05-02T10:46:06.823Z,413.00
2023-05-02T10:47:07.697Z,420.00
2023-05-02T10:48:06.932Z,413.00
2023-05-02T10:49:06.819Z,415.00
2023-05-02T10:50:07.444Z,416.00
2023-05-02T10:51:06.922Z,414.00
2023-05-02T10:52:07.143Z,412.00
2023-05-02T10:53:06.939Z,413.00
2023-05-02T10:54:06.962Z,410.00
2023-05-02T10:55:06.964Z,415.00
2023-05-02T10:56:07.085Z,412.00
2023-05-02T10:57:07.062Z,414.00
2023-05-02T10:58:07.062Z,416.00
2023-05-02T10:59:07.092Z,411.00
2023-05-02T11:00:08.114Z,409.00
2023-05-02T11:01:08.294Z,420.00
2023-05-02T11:02:07.699Z,411.00
2023-05-02T11:03:07.271Z,384.00
2023-05-02T11:04:07.223Z,398.00
2023-05-02T11:05:07.358Z,400.00
2023-05-02T11:06:07.346Z,400.00
2023-05-02T11:07:07.380Z,421.00
2023-05-02T11:08:07.456Z,411.00
2023-05-02T11:09:07.450Z,410.00
2023-05-02T11:10:07.470Z,413.00
2023-05-02T11:11:07.472Z,413.00
2023-05-02T11:12:08.208Z,417.00
2023-05-02T11:13:07.568Z,416.00
2023-05-02T11:14:07.581Z,413.00
2023-05-02T11:15:07.615Z,413.00
2023-05-02T11:16:07.667Z,413.00
2023-05-02T11:17:07.721Z,411.00
2023-05-02T11:18:07.932Z,412.00
2023-05-02T11:19:07.720Z,415.00
2023-05-02T11:20:07.843Z,416.00
2023-05-02T11:21:07.864Z,416.00
2023-05-02T11:22:07.937Z,416.00
2023-05-02T11:23:07.972Z,419.00
2023-05-02T11:24:07.943Z,410.00
2023-05-02T11:25:08.086Z,412.00
2023-05-02T11:26:08.097Z,421.00
2023-05-02T11:27:08.055Z,416.00
2023-05-02T11:28:08.101Z,416.00
2023-05-02T11:29:08.112Z,417.00
2023-05-02T11:30:09.507Z,415.00
2023-05-02T11:31:08.169Z,420.00
2023-05-02T11:32:08.698Z,437.00
2023-05-02T11:33:08.283Z,434.00
2023-05-02T11:34:08.930Z,436.00
2023-05-02T11:35:09.188Z,427.00
2023-05-02T11:36:08.166Z,430.00
2023-05-02T11:37:09.435Z,432.00
2023-05-02T11:38:08.174Z,425.00
2023-05-02T11:39:08.071Z,421.00
2023-05-02T11:40:08.081Z,422.00
2023-05-02T11:41:08.072Z,419.00
2023-05-02T11:42:08.025Z,418.00
2023-05-02T11:43:08.089Z,414.00
2023-05-02T11:44:08.083Z,412.00
2023-05-02T11:45:08.060Z,411.00
2023-05-02T11:46:08.079Z,426.00
2023-05-02T11:47:08.138Z,415.00
2023-05-02T11:48:08.170Z,413.00
2023-05-02T11:49:09.325Z,420.00
2023-05-02T11:50:08.064Z,413.00
2023-05-02T11:51:08.268Z,408.00
2023-05-02T11:52:08.071Z,408.00
2023-05-02T11:53:07.956Z,412.00
2023-05-02T11:54:08.034Z,357.00
2023-05-02T11:55:09.711Z,419.00
2023-05-02T11:56:08.196Z,407.00
2023-05-02T11:57:08.110Z,421.00
2023-05-02T11:58:08.229Z,396.00
2023-05-02T11:59:08.191Z,404.00
2023-05-02T12:00:08.287Z,409.00
2023-05-02T12:01:09.536Z,409.00
2023-05-02T12:02:08.993Z,427.00
2023-05-02T12:03:08.383Z,403.00
2023-05-02T12:04:08.382Z,402.00
2023-05-02T12:05:08.372Z,407.00
2023-05-02T12:06:08.395Z,398.00
2023-05-02T12:07:10.207Z,420.00
2023-05-02T12:08:08.379Z,409.00
2023-05-02T12:09:08.390Z,413.00
2023-05-02T12:10:08.381Z,411.00
2023-05-02T12:11:08.330Z,391.00
2023-05-02T12:12:08.324Z,400.00
2023-05-02T12:13:09.435Z,400.00
2023-05-02T12:14:08.286Z,422.00
2023-05-02T12:15:08.399Z,406.00
2023-05-02T12:16:08.334Z,401.00
2023-05-02T12:17:08.335Z,403.00
2023-05-02T12:18:08.301Z,403.00
2023-05-02T12:19:08.353Z,402.00
2023-05-02T12:20:08.276Z,401.00
2023-05-02T12:21:08.255Z,404.00
2023-05-02T12:22:08.251Z,405.00
2023-05-02T12:23:08.271Z,407.00
2023-05-02T12:24:08.282Z,408.00
2023-05-02T12:25:08.286Z,405.00
2023-05-02T12:26:08.191Z,407.00
2023-05-02T12:27:08.226Z,407.00
2023-05-02T12:28:08.222Z,408.00
2023-05-02T12:29:08.214Z,407.00
2023-05-02T12:30:08.236Z,407.00
2023-05-02T12:31:08.235Z,410.00